createdAt,value
2023-03-15T00:02:03.280Z,-0.19
2023-03-15T00:04:34.628Z,-0.19
2023-03-15T00:07:02.245Z,-0.21
2023-03-15T00:09:29.826Z,-0.21
2023-03-15T00:11:57.348Z,-0.25
2023-03-15T00:14:24.958Z,-0.24
2023-03-15T00:16:54.855Z,-0.22
2023-03-15T00:19:22.357Z,-0.24
2023-03-15T00:21:49.908Z,-0.26
2023-03-15T00:24:17.498Z,-0.26
2023-03-15T00:26:45.011Z,-0.27
2023-03-15T00:29:12.764Z,-0.30
2023-03-15T00:31:40.337Z,-0.32
2023-03-15T00:34:07.870Z,-0.35
2023-03-15T00:36:35.451Z,-0.38
2023-03-15T00:39:05.239Z,-0.42
2023-03-15T00:41:33.813Z,-0.48
2023-03-15T00:44:02.134Z,-0.49
2023-03-15T00:46:30.994Z,-0.54
2023-03-15T00:48:58.635Z,-0.57
2023-03-15T00:51:26.203Z,-0.60
2023-03-15T00:53:54.085Z,-0.65
2023-03-15T00:56:24.932Z,-0.68
2023-03-15T00:58:53.193Z,-0.71
2023-03-15T01:01:27.399Z,-0.72
2023-03-15T01:03:56.189Z,-0.72
2023-03-15T01:06:29.455Z,-0.73
2023-03-15T01:08:59.362Z,-0.75
2023-03-15T01:11:28.503Z,-0.78
2023-03-15T01:13:59.216Z,-0.79
2023-03-15T01:16:27.906Z,-0.82
2023-03-15T01:18:56.176Z,-0.84
2023-03-15T01:21:24.192Z,-0.87
2023-03-15T01:23:51.777Z,-0.90
2023-03-15T01:26:23.035Z,-0.91
2023-03-15T01:28:50.985Z,-0.92
2023-03-15T01:31:21.414Z,-0.94
2023-03-15T01:33:49.186Z,-0.96
2023-03-15T01:36:17.111Z,-0.99
2023-03-15T01:38:44.869Z,-0.98
2023-03-15T01:41:14.410Z,-0.97
2023-03-15T01:43:49.674Z,-0.99
2023-03-15T01:46:28.287Z,-1.03
2023-03-15T01:49:14.103Z,-1.06
2023-03-15T01:52:10.272Z,-1.08
2023-03-15T01:54:56.113Z,-1.10
2023-03-15T01:57:27.042Z,-1.09
2023-03-15T02:00:07.904Z,-1.11
2023-03-15T02:02:51.972Z,-1.13
2023-03-15T02:05:28.881Z,-1.13
2023-03-15T02:07:58.123Z,-1.18
2023-03-15T02:10:38.542Z,-1.19
2023-03-15T02:13:07.352Z,-1.19
2023-03-15T02:15:35.088Z,-1.19
2023-03-15T02:18:05.915Z,-1.20
2023-03-15T02:21:25.063Z,-1.24
2023-03-15T02:24:11.354Z,-1.27
2023-03-15T02:26:44.209Z,-1.28
2023-03-15T02:29:12.285Z,-1.27
2023-03-15T02:31:40.343Z,-1.27
2023-03-15T02:34:08.762Z,-1.29
2023-03-15T02:36:37.560Z,-1.29
2023-03-15T02:39:17.505Z,-1.31
2023-03-15T02:41:52.171Z,-1.33
2023-03-15T02:44:28.647Z,-1.30
2023-03-15T02:47:03.563Z,-1.29
2023-03-15T02:49:38.727Z,-1.30
2023-03-15T02:52:08.656Z,-1.31
2023-03-15T02:54:36.640Z,-1.32
2023-03-15T02:57:05.234Z,-1.33
2023-03-15T02:59:33.034Z,-1.36
2023-03-15T03:02:00.795Z,-1.41
2023-03-15T03:04:28.534Z,-1.45
2023-03-15T03:06:56.471Z,-1.46
2023-03-15T03:09:30.636Z,-1.50
2023-03-15T03:11:58.326Z,-1.51
2023-03-15T03:14:26.255Z,-1.52
2023-03-15T03:16:53.840Z,-1.56
2023-03-15T03:19:25.830Z,-1.56
2023-03-15T03:21:54.532Z,-1.56
2023-03-15T03:24:22.243Z,-1.56
2023-03-15T03:26:49.881Z,-1.57
2023-03-15T03:29:17.627Z,-1.58
2023-03-15T03:31:48.131Z,-1.59
2023-03-15T03:34:16.254Z,-1.59
2023-03-15T03:36:44.259Z,-1.60
2023-03-15T03:39:15.096Z,-1.62
2023-03-15T03:41:44.180Z,-1.64
2023-03-15T03:44:13.288Z,-1.66
2023-03-15T03:46:42.428Z,-1.69
2023-03-15T03:49:10.001Z,-1.70
2023-03-15T03:51:37.872Z,-1.70
2023-03-15T03:54:05.631Z,-1.71
2023-03-15T03:56:33.342Z,-1.72
2023-03-15T03:59:01.077Z,-1.74
2023-03-15T04:01:40.404Z,-1.77
2023-03-15T04:04:09.088Z,-1.78
2023-03-15T04:06:36.836Z,-1.78
2023-03-15T04:09:04.760Z,-1.80
2023-03-15T04:11:42.747Z,-1.81
2023-03-15T04:14:15.086Z,-1.84
2023-03-15T04:16:44.918Z,-1.84
2023-03-15T04:19:16.666Z,-1.86
2023-03-15T04:21:47.488Z,-1.87
2023-03-15T04:24:39.938Z,-1.87
2023-03-15T04:27:29.430Z,-1.89
2023-03-15T04:30:17.829Z,-1.90
2023-03-15T04:32:58.920Z,-1.88
2023-03-15T04:35:45.409Z,-1.89
2023-03-15T04:38:35.570Z,-1.89
2023-03-15T04:41:28.136Z,-1.88
2023-03-15T04:44:18.701Z,-1.86
2023-03-15T04:46:46.290Z,-1.87
2023-03-15T04:49:32.347Z,-1.86
2023-03-15T04:52:18.434Z,-1.83
2023-03-15T04:55:06.947Z,-1.79
2023-03-15T04:57:58.519Z,-1.75
2023-03-15T05:00:45.190Z,-1.70
2023-03-15T05:03:26.862Z,-1.64
2023-03-15T05:05:54.397Z,-1.59
2023-03-15T05:08:45.512Z,-1.51
2023-03-15T05:11:22.445Z,-1.45
2023-03-15T05:14:08.568Z,-1.41
2023-03-15T05:16:55.951Z,-1.37
2023-03-15T05:19:34.770Z,-1.37
2023-03-15T05:22:25.893Z,-1.38
2023-03-15T05:24:56.772Z,-1.38
2023-03-15T05:27:56.826Z,-1.42
2023-03-15T05:30:32.059Z,-1.43
2023-03-15T05:33:07.020Z,-1.45
2023-03-15T05:35:56.609Z,-1.44
2023-03-15T05:38:31.344Z,-1.40
2023-03-15T05:40:58.923Z,-1.38
2023-03-15T05:43:55.409Z,-1.36
2023-03-15T05:46:32.286Z,-1.33
2023-03-15T05:49:11.174Z,-1.31
2023-03-15T05:51:51.809Z,-1.32
2023-03-15T05:54:30.607Z,-1.33
2023-03-15T05:57:08.561Z,-1.33
2023-03-15T05:59:49.058Z,-1.34
2023-03-15T06:02:42.117Z,-1.32
2023-03-15T06:05:33.195Z,-1.30
2023-03-15T06:08:04.077Z,-1.28
2023-03-15T06:10:33.972Z,-1.24
2023-03-15T06:13:07.134Z,-1.22
2023-03-15T06:15:34.853Z,-1.21
2023-03-15T06:18:02.874Z,-1.20
2023-03-15T06:20:32.125Z,-1.20
2023-03-15T06:23:05.947Z,-1.22
2023-03-15T06:25:42.147Z,-1.23
2023-03-15T06:28:10.106Z,-1.24
2023-03-15T06:30:41.787Z,-1.24
2023-03-15T06:33:09.432Z,-1.22
2023-03-15T06:35:37.221Z,-1.21
2023-03-15T06:38:05.201Z,-1.22
2023-03-15T06:40:32.831Z,-1.22
2023-03-15T06:43:05.974Z,-1.23
2023-03-15T06:45:35.047Z,-1.26
2023-03-15T06:48:03.098Z,-1.25
2023-03-15T06:50:40.607Z,-1.23
2023-03-15T06:53:14.294Z,-1.24
2023-03-15T06:55:42.013Z,-1.21
2023-03-15T06:58:09.652Z,-1.18
2023-03-15T07:00:37.498Z,-1.12
2023-03-15T07:03:05.362Z,-1.03
2023-03-15T07:05:33.102Z,-0.92
2023-03-15T07:08:00.686Z,-0.82
2023-03-15T07:10:28.272Z,-0.71
2023-03-15T07:12:55.866Z,-0.60
2023-03-15T07:15:23.377Z,-0.53
2023-03-15T07:17:50.938Z,-0.47
2023-03-15T07:20:18.488Z,-0.41
2023-03-15T07:22:46.137Z,-0.39
2023-03-15T07:25:13.871Z,-0.36
2023-03-15T07:27:41.456Z,-0.32
2023-03-15T07:30:09.940Z,-0.28
2023-03-15T07:32:39.138Z,-0.24
2023-03-15T07:35:06.953Z,-0.20
2023-03-15T07:37:34.539Z,-0.12
2023-03-15T07:40:09.795Z,-0.04
2023-03-15T07:42:39.285Z,0.08
2023-03-15T07:45:09.445Z,0.18
2023-03-15T07:47:37.046Z,0.27
2023-03-15T07:50:05.898Z,0.36
2023-03-15T07:52:33.592Z,0.46
2023-03-15T07:55:01.306Z,0.53
2023-03-15T07:57:29.088Z,0.60
2023-03-15T07:59:56.806Z,0.66
2023-03-15T08:02:24.388Z,0.73
2023-03-15T08:04:51.974Z,0.79
2023-03-15T08:07:19.622Z,0.88
2023-03-15T08:09:47.296Z,0.95
2023-03-15T08:12:14.843Z,1.03
2023-03-15T08:14:42.444Z,1.11
2023-03-15T08:17:13.163Z,1.17
2023-03-15T08:19:40.757Z,1.26
2023-03-15T08:22:08.382Z,1.34
2023-03-15T08:24:36.807Z,1.44
2023-03-15T08:27:05.141Z,1.53
2023-03-15T08:29:33.260Z,1.61
2023-03-15T08:32:00.888Z,1.69
2023-03-15T08:34:28.551Z,1.78
2023-03-15T08:36:56.141Z,1.86
2023-03-15T08:39:24.060Z,1.95
2023-03-15T08:41:51.578Z,2.03
2023-03-15T08:44:19.638Z,2.09
2023-03-15T08:46:47.442Z,2.15
2023-03-15T08:49:15.132Z,2.19
2023-03-15T08:51:42.742Z,2.24
2023-03-15T08:54:10.542Z,2.29
2023-03-15T08:56:38.051Z,2.33
2023-03-15T08:59:05.638Z,2.38
2023-03-15T09:01:33.613Z,2.45
2023-03-15T09:04:02.429Z,2.54
2023-03-15T09:06:30.032Z,2.58
2023-03-15T09:08:57.756Z,2.65
2023-03-15T09:11:25.375Z,2.68
2023-03-15T09:13:52.939Z,2.69
2023-03-15T09:16:20.651Z,2.78
2023-03-15T09:18:48.328Z,2.86
2023-03-15T09:21:15.890Z,2.91
2023-03-15T09:23:43.506Z,2.98
2023-03-15T09:26:11.069Z,3.06
2023-03-15T09:28:38.665Z,3.16
2023-03-15T09:31:06.827Z,3.26
2023-03-15T09:33:34.526Z,3.36
2023-03-15T09:36:02.740Z,3.48
2023-03-15T09:38:31.085Z,3.62
2023-03-15T09:40:59.896Z,3.75
2023-03-15T09:43:42.808Z,3.90
2023-03-15T09:46:35.370Z,4.02
2023-03-15T09:49:37.508Z,4.19
2023-03-15T09:52:20.925Z,4.29
2023-03-15T09:55:13.022Z,4.30
2023-03-15T09:58:01.899Z,4.33
2023-03-15T10:00:40.098Z,4.32
2023-03-15T10:03:18.431Z,4.27
2023-03-15T10:05:52.340Z,4.21
2023-03-15T10:08:20.338Z,4.19
2023-03-15T10:10:57.215Z,4.18
2023-03-15T10:13:51.102Z,4.14
2023-03-15T10:16:27.819Z,4.12
2023-03-15T10:19:19.009Z,4.06
2023-03-15T10:22:14.674Z,4.04
2023-03-15T10:25:00.629Z,3.97
2023-03-15T10:27:49.503Z,3.94
2023-03-15T10:30:23.672Z,3.95
2023-03-15T10:33:05.883Z,4.00
2023-03-15T10:35:33.585Z,4.05
2023-03-15T10:38:02.755Z,4.12
2023-03-15T10:40:43.120Z,4.19
2023-03-15T10:43:25.899Z,4.31
2023-03-15T10:46:05.773Z,4.40
2023-03-15T10:48:35.855Z,4.51
2023-03-15T10:51:28.906Z,4.57
2023-03-15T10:54:16.643Z,4.66
2023-03-15T10:56:58.136Z,4.74
2023-03-15T10:59:28.720Z,4.82
2023-03-15T11:02:23.480Z,4.85
2023-03-15T11:05:04.805Z,4.90
2023-03-15T11:07:36.006Z,4.94
2023-03-15T11:10:06.715Z,4.98
2023-03-15T11:12:35.081Z,5.01
2023-03-15T11:15:05.257Z,5.06
2023-03-15T11:17:36.767Z,5.09
2023-03-15T11:20:23.561Z,5.09
2023-03-15T11:22:53.739Z,5.12
2023-03-15T11:25:25.060Z,5.20
2023-03-15T11:27:53.813Z,5.30
2023-03-15T11:30:31.461Z,5.38
2023-03-15T11:33:06.954Z,5.48
2023-03-15T11:35:48.407Z,5.58
2023-03-15T11:38:30.484Z,5.74
2023-03-15T11:41:00.341Z,6.00
2023-03-15T11:43:54.089Z,6.28
2023-03-15T11:46:29.583Z,6.59
2023-03-15T11:49:10.875Z,6.93
2023-03-15T11:51:39.531Z,7.35
2023-03-15T11:54:29.230Z,7.80
2023-03-15T11:57:06.477Z,8.24
2023-03-15T11:59:38.000Z,8.64
2023-03-15T12:02:11.526Z,8.86
2023-03-15T12:04:47.893Z,8.90
2023-03-15T12:07:15.525Z,8.97
2023-03-15T12:10:19.782Z,9.06
2023-03-15T12:12:56.665Z,9.12
2023-03-15T12:15:27.451Z,9.35
2023-03-15T12:17:57.109Z,9.79
2023-03-15T12:20:30.550Z,10.34
2023-03-15T12:23:17.082Z,10.93
2023-03-15T12:25:57.322Z,11.52
2023-03-15T12:28:34.494Z,12.03
2023-03-15T12:31:06.020Z,12.43
2023-03-15T12:33:45.651Z,12.52
2023-03-15T12:36:31.538Z,12.40
2023-03-15T12:39:02.588Z,12.27
2023-03-15T12:41:36.828Z,12.08
2023-03-15T12:44:18.399Z,11.86
2023-03-15T12:46:46.282Z,11.59
2023-03-15T12:49:16.894Z,11.33
2023-03-15T12:51:57.364Z,11.10
2023-03-15T12:54:40.489Z,10.83
2023-03-15T12:57:12.208Z,10.47
2023-03-15T12:59:45.909Z,10.28
2023-03-15T13:02:42.883Z,10.12
2023-03-15T13:05:54.539Z,9.97
2023-03-15T13:09:05.953Z,9.88
2023-03-15T13:11:56.277Z,9.81
2023-03-15T13:14:44.898Z,9.73
2023-03-15T13:17:47.940Z,9.63
2023-03-15T13:20:37.450Z,9.53
2023-03-15T13:23:26.433Z,9.49
2023-03-15T13:26:03.009Z,9.40
2023-03-15T13:28:39.851Z,9.22
2023-03-15T13:31:22.404Z,9.05
2023-03-15T13:33:58.186Z,9.00
2023-03-15T13:36:47.018Z,8.92
2023-03-15T13:39:19.303Z,8.86
2023-03-15T13:41:47.509Z,8.66
2023-03-15T13:44:23.905Z,8.53
2023-03-15T13:46:53.531Z,8.46
2023-03-15T13:49:22.200Z,8.45
2023-03-15T13:51:53.293Z,8.46
2023-03-15T13:54:30.729Z,8.34
2023-03-15T13:57:06.350Z,8.25
2023-03-15T13:59:49.254Z,8.16
2023-03-15T14:02:21.871Z,8.12
2023-03-15T14:04:56.498Z,8.09
2023-03-15T14:07:36.567Z,7.97
2023-03-15T14:10:19.178Z,7.86
2023-03-15T14:12:46.880Z,7.85
2023-03-15T14:15:25.301Z,7.81
2023-03-15T14:18:13.318Z,7.78
2023-03-15T14:20:44.330Z,7.65
2023-03-15T14:23:15.372Z,7.57
2023-03-15T14:25:44.141Z,7.54
2023-03-15T14:28:15.747Z,7.51
2023-03-15T14:30:52.171Z,7.46
2023-03-15T14:33:54.195Z,7.36
2023-03-15T14:36:31.598Z,7.31
2023-03-15T14:38:59.902Z,7.34
2023-03-15T14:41:27.691Z,7.30
2023-03-15T14:43:55.283Z,7.24
2023-03-15T14:46:22.974Z,7.16
2023-03-15T14:48:51.350Z,7.02
2023-03-15T14:51:21.749Z,6.91
2023-03-15T14:53:54.435Z,6.81
2023-03-15T14:56:23.604Z,6.70
2023-03-15T14:58:54.229Z,6.65
2023-03-15T15:01:27.099Z,6.65
2023-03-15T15:03:59.875Z,6.62
2023-03-15T15:06:31.923Z,6.60
2023-03-15T15:09:01.586Z,6.58
2023-03-15T15:11:29.225Z,6.61
2023-03-15T15:13:57.801Z,6.65
2023-03-15T15:16:25.793Z,6.67
2023-03-15T15:18:53.419Z,6.65
2023-03-15T15:21:29.010Z,6.59
2023-03-15T15:23:59.350Z,6.49
2023-03-15T15:26:29.916Z,6.42
2023-03-15T15:28:58.189Z,6.33
2023-03-15T15:31:27.827Z,6.29
2023-03-15T15:33:57.526Z,6.30
2023-03-15T15:36:31.105Z,6.29
2023-03-15T15:39:07.137Z,6.21
2023-03-15T15:41:35.958Z,6.13
2023-03-15T15:44:04.019Z,6.06
2023-03-15T15:46:32.315Z,5.93
2023-03-15T15:49:00.119Z,5.83
2023-03-15T15:51:35.616Z,5.82
2023-03-15T15:54:03.381Z,5.82
2023-03-15T15:56:34.626Z,5.79
2023-03-15T15:59:04.884Z,5.75
2023-03-15T16:01:33.203Z,5.71
2023-03-15T16:04:02.367Z,5.71
2023-03-15T16:06:31.161Z,5.64
2023-03-15T16:08:59.023Z,5.53
2023-03-15T16:11:27.798Z,5.45
2023-03-15T16:13:55.579Z,5.37
2023-03-15T16:16:23.361Z,5.32
2023-03-15T16:18:51.173Z,5.25
2023-03-15T16:21:27.966Z,5.20
2023-03-15T16:24:03.505Z,5.17
2023-03-15T16:26:31.564Z,5.16
2023-03-15T16:28:59.170Z,5.13
2023-03-15T16:31:26.923Z,5.15
2023-03-15T16:33:54.540Z,5.14
2023-03-15T16:36:22.543Z,5.13
2023-03-15T16:38:50.864Z,5.14
2023-03-15T16:41:18.747Z,5.11
2023-03-15T16:43:49.086Z,5.06
2023-03-15T16:46:17.701Z,5.04
2023-03-15T16:48:45.459Z,5.00
2023-03-15T16:51:15.569Z,4.99
2023-03-15T16:53:45.180Z,4.95
2023-03-15T16:56:14.981Z,4.97
2023-03-15T16:58:44.437Z,4.94
2023-03-15T17:01:12.215Z,4.93
2023-03-15T17:03:40.062Z,4.95
2023-03-15T17:06:17.843Z,4.97
2023-03-15T17:08:46.471Z,4.96
2023-03-15T17:11:14.166Z,4.91
2023-03-15T17:13:42.379Z,4.89
2023-03-15T17:16:12.600Z,4.83
2023-03-15T17:18:41.905Z,4.78
2023-03-15T17:21:15.767Z,4.76
2023-03-15T17:23:44.098Z,4.73
2023-03-15T17:26:17.476Z,4.70
2023-03-15T17:28:45.776Z,4.65
2023-03-15T17:31:26.126Z,4.60
2023-03-15T17:33:53.765Z,4.59
2023-03-15T17:36:24.616Z,4.59
2023-03-15T17:38:53.476Z,4.55
2023-03-15T17:41:24.465Z,4.54
2023-03-15T17:43:52.773Z,4.54
2023-03-15T17:46:28.195Z,4.49
2023-03-15T17:49:00.494Z,4.44
2023-03-15T17:51:31.124Z,4.40
2023-03-15T17:53:59.683Z,4.38
2023-03-15T17:56:29.912Z,4.37
2023-03-15T17:58:57.636Z,4.32
2023-03-15T18:01:28.705Z,4.32
2023-03-15T18:03:57.274Z,4.29
2023-03-15T18:06:25.118Z,4.29
2023-03-15T18:08:53.046Z,4.27
2023-03-15T18:11:46.084Z,4.28
2023-03-15T18:14:15.705Z,4.27
2023-03-15T18:16:43.718Z,4.25
2023-03-15T18:19:12.951Z,4.25
2023-03-15T18:21:40.666Z,4.21
2023-03-15T18:24:11.416Z,4.20
2023-03-15T18:26:39.112Z,4.16
2023-03-15T18:29:06.713Z,4.15
2023-03-15T18:31:35.523Z,4.14
2023-03-15T18:34:03.718Z,4.12
2023-03-15T18:36:31.763Z,4.09
2023-03-15T18:38:59.529Z,4.07
2023-03-15T18:41:27.226Z,4.06
2023-03-15T18:43:54.827Z,4.02
2023-03-15T18:46:24.705Z,3.99
2023-03-15T18:48:53.604Z,3.97
2023-03-15T18:51:25.789Z,3.95
2023-03-15T18:53:54.278Z,3.94
2023-03-15T18:56:28.580Z,3.95
2023-03-15T18:58:56.348Z,3.91
2023-03-15T19:01:24.646Z,3.89
2023-03-15T19:03:54.382Z,3.86
2023-03-15T19:06:23.449Z,3.81
2023-03-15T19:08:54.358Z,3.72
2023-03-15T19:11:24.031Z,3.63
2023-03-15T19:13:51.997Z,3.57
2023-03-15T19:16:23.325Z,3.50
2023-03-15T19:18:52.124Z,3.47
2023-03-15T19:21:19.856Z,3.46
2023-03-15T19:23:48.149Z,3.39
2023-03-15T19:26:15.736Z,3.36
2023-03-15T19:28:43.783Z,3.34
2023-03-15T19:31:11.576Z,3.30
2023-03-15T19:33:39.307Z,3.26
2023-03-15T19:36:07.393Z,3.26
2023-03-15T19:38:35.358Z,3.25
2023-03-15T19:41:04.927Z,3.25
2023-03-15T19:43:32.817Z,3.26
2023-03-15T19:46:01.636Z,3.26
2023-03-15T19:48:29.256Z,3.27
2023-03-15T19:50:56.853Z,3.26
2023-03-15T19:53:24.953Z,3.27
2023-03-15T19:55:52.476Z,3.27
2023-03-15T19:58:20.238Z,3.27
2023-03-15T20:00:49.510Z,3.25
2023-03-15T20:03:17.240Z,3.24
2023-03-15T20:05:45.373Z,3.21
2023-03-15T20:08:13.317Z,3.21
2023-03-15T20:10:40.910Z,3.20
2023-03-15T20:13:09.971Z,3.19
2023-03-15T20:15:37.970Z,3.20
2023-03-15T20:18:08.256Z,3.20
2023-03-15T20:20:36.080Z,3.19
2023-03-15T20:23:03.808Z,3.21
2023-03-15T20:25:31.735Z,3.24
2023-03-15T20:27:59.534Z,3.24
2023-03-15T20:30:27.397Z,3.25
2023-03-15T20:32:55.610Z,3.27
2023-03-15T20:35:23.369Z,3.28
2023-03-15T20:37:53.501Z,3.30
2023-03-15T20:40:22.418Z,3.32
2023-03-15T20:42:50.384Z,3.31
2023-03-15T20:45:18.328Z,3.29
2023-03-15T20:47:45.957Z,3.28
2023-03-15T20:50:13.613Z,3.26
2023-03-15T20:52:42.872Z,3.26
2023-03-15T20:55:12.253Z,3.28
2023-03-15T20:57:42.712Z,3.30
2023-03-15T21:00:18.991Z,3.27
2023-03-15T21:02:48.001Z,3.29
2023-03-15T21:05:16.723Z,3.26
2023-03-15T21:07:45.701Z,3.25
2023-03-15T21:10:14.144Z,3.21
2023-03-15T21:12:42.440Z,3.21
2023-03-15T21:15:15.521Z,3.18
2023-03-15T21:17:44.239Z,3.18
2023-03-15T21:20:15.573Z,3.18
2023-03-15T21:22:43.833Z,3.19
2023-03-15T21:25:11.594Z,3.19
2023-03-15T21:27:39.561Z,3.18
2023-03-15T21:30:08.281Z,3.20
2023-03-15T21:32:38.718Z,3.19
2023-03-15T21:35:07.813Z,3.18
2023-03-15T21:37:35.627Z,3.20
2023-03-15T21:40:05.250Z,3.21
2023-03-15T21:42:34.213Z,3.20
2023-03-15T21:45:02.047Z,3.22
2023-03-15T21:47:29.763Z,3.21
2023-03-15T21:49:57.478Z,3.19
2023-03-15T21:52:26.440Z,3.17
2023-03-15T21:54:54.533Z,3.20
2023-03-15T21:57:22.258Z,3.17
2023-03-15T21:59:50.229Z,3.16
2023-03-15T22:02:17.873Z,3.18
2023-03-15T22:04:45.501Z,3.18
2023-03-15T22:07:13.198Z,3.16
2023-03-15T22:09:41.920Z,3.19
2023-03-15T22:12:09.816Z,3.19
2023-03-15T22:14:37.513Z,3.21
2023-03-15T22:17:05.269Z,3.21
2023-03-15T22:19:33.005Z,3.25
2023-03-15T22:22:01.149Z,3.24
2023-03-15T22:24:29.136Z,3.22
2023-03-15T22:26:57.140Z,3.23
2023-03-15T22:29:24.793Z,3.25
2023-03-15T22:31:52.419Z,3.25
2023-03-15T22:34:20.117Z,3.28
2023-03-15T22:36:47.772Z,3.28
2023-03-15T22:39:15.323Z,3.30
2023-03-15T22:41:42.884Z,3.30
2023-03-15T22:44:10.542Z,3.31
2023-03-15T22:46:38.290Z,3.36
2023-03-15T22:49:05.902Z,3.37
2023-03-15T22:51:33.567Z,3.38
2023-03-15T22:54:01.202Z,3.42
2023-03-15T22:56:28.893Z,3.45
2023-03-15T22:58:56.559Z,3.43
2023-03-15T23:01:24.528Z,3.45
2023-03-15T23:03:52.288Z,3.42
2023-03-15T23:06:20.196Z,3.41
2023-03-15T23:08:48.256Z,3.42
2023-03-15T23:11:15.813Z,3.42
2023-03-15T23:13:43.522Z,3.41
2023-03-15T23:16:11.290Z,3.42
2023-03-15T23:18:38.899Z,3.45
2023-03-15T23:21:08.599Z,3.47
2023-03-15T23:23:36.832Z,3.47
2023-03-15T23:26:05.850Z,3.51
2023-03-15T23:28:34.432Z,3.53
2023-03-15T23:31:04.151Z,3.57
2023-03-15T23:33:35.692Z,3.57
2023-03-15T23:36:07.092Z,3.58
2023-03-15T23:38:34.924Z,3.61
2023-03-15T23:41:02.856Z,3.61
2023-03-15T23:43:31.388Z,3.60
2023-03-15T23:46:00.405Z,3.61
2023-03-15T23:48:27.973Z,3.62
2023-03-15T23:50:58.897Z,3.58
2023-03-15T23:53:26.538Z,3.55
2023-03-15T23:55:54.289Z,3.56
2023-03-15T23:58:21.936Z,3.57
